sensor_id;sensor_type;location;lat;lon;timestamp;P1;durP1;ratioP1;P2;durP2;ratioP2
25279;SDS011;13225;47.804;12.116;2023-08-08T00:01:53;2.67;;;1.50;;
25279;SDS011;13225;47.804;12.116;2023-08-08T00:04:19;5.72;;;2.15;;
25279;SDS011;13225;47.804;12.116;2023-08-08T00:06:44;4.22;;;1.80;;
25279;SDS011;13225;47.804;12.116;2023-08-08T00:09:10;3.05;;;1.45;;
25279;SDS011;13225;47.804;12.116;2023-08-08T00:11:35;3.42;;;1.30;;
25279;SDS011;13225;47.804;12.116;2023-08-08T00:14:01;1.30;;;1.17;;
25279;SDS011;13225;47.804;12.116;2023-08-08T00:16:27;3.58;;;1.50;;
25279;SDS011;13225;47.804;12.116;2023-08-08T00:18:52;1.73;;;1.15;;
25279;SDS011;13225;47.804;12.116;2023-08-08T00:21:19;2.85;;;1.45;;
25279;SDS011;13225;47.804;12.116;2023-08-08T00:23:45;2.33;;;1.17;;
25279;SDS011;13225;47.804;12.116;2023-08-08T00:26:11;1.23;;;1.17;;
25279;SDS011;13225;47.804;12.116;2023-08-08T00:28:36;1.73;;;1.40;;
25279;SDS011;13225;47.804;12.116;2023-08-08T00:31:02;1.42;;;1.30;;
25279;SDS011;13225;47.804;12.116;2023-08-08T00:33:28;1.58;;;1.30;;
25279;SDS011;13225;47.804;12.116;2023-08-08T00:35:53;1.65;;;1.40;;
25279;SDS011;13225;47.804;12.116;2023-08-08T00:38:19;1.20;;;1.10;;
25279;SDS011;13225;47.804;12.116;2023-08-08T00:40:45;1.65;;;1.25;;
25279;SDS011;13225;47.804;12.116;2023-08-08T00:43:10;1.55;;;1.45;;
25279;SDS011;13225;47.804;12.116;2023-08-08T00:45:36;2.33;;;1.70;;
25279;SDS011;13225;47.804;12.116;2023-08-08T00:48:03;2.05;;;1.20;;
25279;SDS011;13225;47.804;12.116;2023-08-08T00:50:29;1.60;;;1.30;;
25279;SDS011;13225;47.804;12.116;2023-08-08T00:52:55;1.33;;;1.20;;
25279;SDS011;13225;47.804;12.116;2023-08-08T00:55:21;1.92;;;1.30;;
25279;SDS011;13225;47.804;12.116;2023-08-08T00:57:47;1.98;;;1.50;;
25279;SDS011;13225;47.804;12.116;2023-08-08T01:00:12;1.60;;;1.45;;
25279;SDS011;13225;47.804;12.116;2023-08-08T01:02:38;1.30;;;1.20;;
25279;SDS011;13225;47.804;12.116;2023-08-08T01:05:04;2.70;;;1.30;;
25279;SDS011;13225;47.804;12.116;2023-08-08T01:12:51;1.60;;;1.30;;
25279;SDS011;13225;47.804;12.116;2023-08-08T01:15:21;1.42;;;1.33;;
25279;SDS011;13225;47.804;12.116;2023-08-08T01:17:48;2.78;;;1.20;;
25279;SDS011;13225;47.804;12.116;2023-08-08T01:20:15;2.60;;;1.23;;
25279;SDS011;13225;47.804;12.116;2023-08-08T01:22:48;1.70;;;1.30;;
25279;SDS011;13225;47.804;12.116;2023-08-08T01:25:36;3.22;;;1.20;;
25279;SDS011;13225;47.804;12.116;2023-08-08T01:28:03;1.50;;;1.40;;
25279;SDS011;13225;47.804;12.116;2023-08-08T01:30:29;2.03;;;1.40;;
25279;SDS011;13225;47.804;12.116;2023-08-08T01:32:54;1.65;;;1.40;;
25279;SDS011;13225;47.804;12.116;2023-08-08T01:35:20;2.65;;;1.25;;
25279;SDS011;13225;47.804;12.116;2023-08-08T01:37:48;1.40;;;1.30;;
25279;SDS011;13225;47.804;12.116;2023-08-08T01:40:17;1.90;;;1.50;;
25279;SDS011;13225;47.804;12.116;2023-08-08T01:42:45;1.60;;;1.50;;
25279;SDS011;13225;47.804;12.116;2023-08-08T01:45:12;3.42;;;2.40;;
25279;SDS011;13225;47.804;12.116;2023-08-08T01:47:39;2.20;;;1.80;;
25279;SDS011;13225;47.804;12.116;2023-08-08T01:50:06;2.88;;;1.88;;
25279;SDS011;13225;47.804;12.116;2023-08-08T01:52:33;2.70;;;1.70;;
25279;SDS011;13225;47.804;12.116;2023-08-08T01:54:59;3.53;;;2.08;;
25279;SDS011;13225;47.804;12.116;2023-08-08T01:57:25;1.50;;;1.40;;
25279;SDS011;13225;47.804;12.116;2023-08-08T01:59:51;1.85;;;1.35;;
25279;SDS011;13225;47.804;12.116;2023-08-08T02:02:16;1.60;;;1.40;;
25279;SDS011;13225;47.804;12.116;2023-08-08T02:04:42;3.58;;;1.90;;
25279;SDS011;13225;47.804;12.116;2023-08-08T02:07:08;1.95;;;1.67;;
25279;SDS011;13225;47.804;12.116;2023-08-08T02:09:34;2.03;;;1.83;;
25279;SDS011;13225;47.804;12.116;2023-08-08T02:11:59;2.13;;;1.70;;
25279;SDS011;13225;47.804;12.116;2023-08-08T02:14:25;2.22;;;1.83;;
25279;SDS011;13225;47.804;12.116;2023-08-08T02:16:51;2.83;;;1.60;;
25279;SDS011;13225;47.804;12.116;2023-08-08T02:19:16;1.52;;;1.38;;
25279;SDS011;13225;47.804;12.116;2023-08-08T02:21:42;2.08;;;1.58;;
25279;SDS011;13225;47.804;12.116;2023-08-08T02:24:07;1.90;;;1.58;;
25279;SDS011;13225;47.804;12.116;2023-08-08T02:26:33;1.90;;;1.73;;
25279;SDS011;13225;47.804;12.116;2023-08-08T02:28:59;4.72;;;1.92;;
25279;SDS011;13225;47.804;12.116;2023-08-08T02:31:24;4.72;;;1.60;;
25279;SDS011;13225;47.804;12.116;2023-08-08T02:33:50;1.67;;;1.40;;
25279;SDS011;13225;47.804;12.116;2023-08-08T02:36:16;1.60;;;1.50;;
25279;SDS011;13225;47.804;12.116;2023-08-08T02:38:42;2.13;;;1.67;;
25279;SDS011;13225;47.804;12.116;2023-08-08T02:41:08;3.00;;;1.60;;
25279;SDS011;13225;47.804;12.116;2023-08-08T02:43:33;2.53;;;1.45;;
25279;SDS011;13225;47.804;12.116;2023-08-08T02:45:59;2.40;;;1.48;;
25279;SDS011;13225;47.804;12.116;2023-08-08T02:48:25;2.67;;;1.52;;
25279;SDS011;13225;47.804;12.116;2023-08-08T02:50:50;3.20;;;1.50;;
25279;SDS011;13225;47.804;12.116;2023-08-08T02:53:16;1.48;;;1.38;;
25279;SDS011;13225;47.804;12.116;2023-08-08T02:55:41;1.60;;;1.50;;
25279;SDS011;13225;47.804;12.116;2023-08-08T02:58:07;3.92;;;1.50;;
25279;SDS011;13225;47.804;12.116;2023-08-08T03:00:32;2.35;;;1.48;;
25279;SDS011;13225;47.804;12.116;2023-08-08T03:02:58;1.60;;;1.50;;
25279;SDS011;13225;47.804;12.116;2023-08-08T03:05:24;1.80;;;1.50;;
25279;SDS011;13225;47.804;12.116;2023-08-08T03:07:49;1.73;;;1.33;;
25279;SDS011;13225;47.804;12.116;2023-08-08T03:10:15;2.22;;;1.52;;
25279;SDS011;13225;47.804;12.116;2023-08-08T03:12:40;2.10;;;1.70;;
25279;SDS011;13225;47.804;12.116;2023-08-08T03:15:06;5.88;;;1.67;;
25279;SDS011;13225;47.804;12.116;2023-08-08T03:17:32;3.50;;;1.60;;
25279;SDS011;13225;47.804;12.116;2023-08-08T03:19:59;3.20;;;1.70;;
25279;SDS011;13225;47.804;12.116;2023-08-08T03:22:25;5.85;;;2.10;;
25279;SDS011;13225;47.804;12.116;2023-08-08T03:24:51;2.28;;;1.65;;
25279;SDS011;13225;47.804;12.116;2023-08-08T03:27:16;3.38;;;1.70;;
25279;SDS011;13225;47.804;12.116;2023-08-08T03:29:42;7.63;;;1.63;;
25279;SDS011;13225;47.804;12.116;2023-08-08T03:32:08;1.70;;;1.60;;
25279;SDS011;13225;47.804;12.116;2023-08-08T03:34:33;2.28;;;1.98;;
25279;SDS011;13225;47.804;12.116;2023-08-08T03:36:59;3.40;;;1.80;;
25279;SDS011;13225;47.804;12.116;2023-08-08T03:39:25;1.58;;;1.40;;
25279;SDS011;13225;47.804;12.116;2023-08-08T03:41:51;3.25;;;1.90;;
25279;SDS011;13225;47.804;12.116;2023-08-08T03:44:17;2.33;;;1.50;;
25279;SDS011;13225;47.804;12.116;2023-08-08T03:46:42;1.95;;;1.70;;
25279;SDS011;13225;47.804;12.116;2023-08-08T03:49:08;3.22;;;1.60;;
25279;SDS011;13225;47.804;12.116;2023-08-08T03:51:33;2.40;;;1.80;;
25279;SDS011;13225;47.804;12.116;2023-08-08T03:53:59;3.00;;;1.63;;
25279;SDS011;13225;47.804;12.116;2023-08-08T03:56:25;1.83;;;1.50;;
25279;SDS011;13225;47.804;12.116;2023-08-08T03:58:52;2.25;;;1.80;;
25279;SDS011;13225;47.804;12.116;2023-08-08T04:01:18;3.33;;;1.80;;
25279;SDS011;13225;47.804;12.116;2023-08-08T04:03:43;2.10;;;1.70;;
25279;SDS011;13225;47.804;12.116;2023-08-08T04:06:09;1.95;;;1.80;;
25279;SDS011;13225;47.804;12.116;2023-08-08T04:08:34;1.85;;;1.50;;
25279;SDS011;13225;47.804;12.116;2023-08-08T04:11:00;1.90;;;1.50;;
25279;SDS011;13225;47.804;12.116;2023-08-08T04:13:25;4.03;;;1.88;;
25279;SDS011;13225;47.804;12.116;2023-08-08T04:15:51;2.45;;;1.60;;
25279;SDS011;13225;47.804;12.116;2023-08-08T04:18:17;4.65;;;1.75;;
25279;SDS011;13225;47.804;12.116;2023-08-08T04:20:45;9.95;;;2.42;;
25279;SDS011;13225;47.804;12.116;2023-08-08T04:23:12;2.00;;;1.70;;
25279;SDS011;13225;47.804;12.116;2023-08-08T04:25:38;4.55;;;1.60;;
25279;SDS011;13225;47.804;12.116;2023-08-08T04:28:04;3.72;;;1.63;;
25279;SDS011;13225;47.804;12.116;2023-08-08T04:30:29;1.42;;;1.33;;
25279;SDS011;13225;47.804;12.116;2023-08-08T04:32:55;1.90;;;1.40;;
25279;SDS011;13225;47.804;12.116;2023-08-08T04:35:20;3.58;;;1.90;;
25279;SDS011;13225;47.804;12.116;2023-08-08T04:37:46;3.63;;;1.50;;
25279;SDS011;13225;47.804;12.116;2023-08-08T04:40:12;2.28;;;1.20;;
25279;SDS011;13225;47.804;12.116;2023-08-08T04:42:38;2.97;;;1.55;;
25279;SDS011;13225;47.804;12.116;2023-08-08T04:45:04;3.55;;;1.65;;
25279;SDS011;13225;47.804;12.116;2023-08-08T04:47:29;2.25;;;1.58;;
25279;SDS011;13225;47.804;12.116;2023-08-08T04:49:55;2.88;;;1.60;;
25279;SDS011;13225;47.804;12.116;2023-08-08T04:52:21;1.65;;;1.45;;
25279;SDS011;13225;47.804;12.116;2023-08-08T04:54:46;2.22;;;1.50;;
25279;SDS011;13225;47.804;12.116;2023-08-08T04:57:12;4.55;;;1.95;;
25279;SDS011;13225;47.804;12.116;2023-08-08T04:59:37;3.25;;;1.50;;
25279;SDS011;13225;47.804;12.116;2023-08-08T05:02:03;3.38;;;1.38;;
25279;SDS011;13225;47.804;12.116;2023-08-08T05:04:29;3.63;;;1.20;;
25279;SDS011;13225;47.804;12.116;2023-08-08T05:06:55;2.67;;;1.38;;
25279;SDS011;13225;47.804;12.116;2023-08-08T05:09:22;1.88;;;1.17;;
25279;SDS011;13225;47.804;12.116;2023-08-08T05:11:51;2.72;;;1.45;;
25279;SDS011;13225;47.804;12.116;2023-08-08T05:14:17;4.38;;;1.38;;
25279;SDS011;13225;47.804;12.116;2023-08-08T05:16:43;2.72;;;1.60;;
25279;SDS011;13225;47.804;12.116;2023-08-08T05:19:08;2.63;;;1.70;;
25279;SDS011;13225;47.804;12.116;2023-08-08T05:21:34;4.90;;;1.50;;
25279;SDS011;13225;47.804;12.116;2023-08-08T05:24:00;7.78;;;1.70;;
25279;SDS011;13225;47.804;12.116;2023-08-08T05:26:25;1.90;;;1.33;;
25279;SDS011;13225;47.804;12.116;2023-08-08T05:28:52;3.10;;;1.40;;
25279;SDS011;13225;47.804;12.116;2023-08-08T05:31:17;3.10;;;1.58;;
25279;SDS011;13225;47.804;12.116;2023-08-08T05:33:43;1.95;;;1.20;;
25279;SDS011;13225;47.804;12.116;2023-08-08T05:36:08;3.17;;;1.48;;
25279;SDS011;13225;47.804;12.116;2023-08-08T05:38:34;5.03;;;1.65;;
25279;SDS011;13225;47.804;12.116;2023-08-08T05:40:59;3.20;;;1.40;;
25279;SDS011;13225;47.804;12.116;2023-08-08T05:43:25;2.95;;;2.65;;
25279;SDS011;13225;47.804;12.116;2023-08-08T05:45:52;2.60;;;1.42;;
25279;SDS011;13225;47.804;12.116;2023-08-08T05:48:18;2.00;;;1.08;;
25279;SDS011;13225;47.804;12.116;2023-08-08T05:50:44;2.47;;;1.23;;
25279;SDS011;13225;47.804;12.116;2023-08-08T05:53:09;1.33;;;1.15;;
25279;SDS011;13225;47.804;12.116;2023-08-08T05:55:35;1.17;;;1.08;;
25279;SDS011;13225;47.804;12.116;2023-08-08T05:58:01;4.95;;;1.40;;
25279;SDS011;13225;47.804;12.116;2023-08-08T06:00:26;2.00;;;1.40;;
25279;SDS011;13225;47.804;12.116;2023-08-08T06:02:52;1.85;;;1.20;;
25279;SDS011;13225;47.804;12.116;2023-08-08T06:05:17;2.45;;;1.60;;
25279;SDS011;13225;47.804;12.116;2023-08-08T06:07:43;1.33;;;1.20;;
25279;SDS011;13225;47.804;12.116;2023-08-08T06:10:09;2.45;;;1.48;;
25279;SDS011;13225;47.804;12.116;2023-08-08T06:12:35;1.95;;;1.20;;
25279;SDS011;13225;47.804;12.116;2023-08-08T06:15:01;3.00;;;1.40;;
25279;SDS011;13225;47.804;12.116;2023-08-08T06:17:28;2.75;;;1.25;;
25279;SDS011;13225;47.804;12.116;2023-08-08T06:19:54;1.65;;;1.20;;
25279;SDS011;13225;47.804;12.116;2023-08-08T06:22:21;1.67;;;1.10;;
25279;SDS011;13225;47.804;12.116;2023-08-08T06:24:47;4.95;;;1.48;;
25279;SDS011;13225;47.804;12.116;2023-08-08T06:27:13;2.97;;;1.40;;
25279;SDS011;13225;47.804;12.116;2023-08-08T06:29:39;1.40;;;1.23;;
25279;SDS011;13225;47.804;12.116;2023-08-08T06:32:04;2.90;;;1.10;;
25279;SDS011;13225;47.804;12.116;2023-08-08T06:34:30;1.60;;;1.20;;
25279;SDS011;13225;47.804;12.116;2023-08-08T06:36:55;2.13;;;1.20;;
25279;SDS011;13225;47.804;12.116;2023-08-08T06:39:21;1.38;;;1.23;;
25279;SDS011;13225;47.804;12.116;2023-08-08T06:41:47;5.03;;;1.33;;
25279;SDS011;13225;47.804;12.116;2023-08-08T06:44:13;2.50;;;1.25;;
25279;SDS011;13225;47.804;12.116;2023-08-08T06:46:38;2.33;;;1.30;;
25279;SDS011;13225;47.804;12.116;2023-08-08T06:49:04;2.42;;;1.20;;
25279;SDS011;13225;47.804;12.116;2023-08-08T06:51:32;4.07;;;1.20;;
25279;SDS011;13225;47.804;12.116;2023-08-08T06:53:57;1.38;;;1.27;;
25279;SDS011;13225;47.804;12.116;2023-08-08T06:56:23;1.52;;;1.38;;
25279;SDS011;13225;47.804;12.116;2023-08-08T06:58:51;2.80;;;1.60;;
25279;SDS011;13225;47.804;12.116;2023-08-08T07:01:17;1.70;;;1.25;;
25279;SDS011;13225;47.804;12.116;2023-08-08T07:03:42;1.10;;;0.93;;
25279;SDS011;13225;47.804;12.116;2023-08-08T07:06:08;3.92;;;1.10;;
25279;SDS011;13225;47.804;12.116;2023-08-08T07:08:34;1.10;;;1.00;;
25279;SDS011;13225;47.804;12.116;2023-08-08T07:11:00;2.17;;;1.27;;
25279;SDS011;13225;47.804;12.116;2023-08-08T07:13:26;1.70;;;1.30;;
25279;SDS011;13225;47.804;12.116;2023-08-08T07:15:51;1.25;;;1.15;;
25279;SDS011;13225;47.804;12.116;2023-08-08T07:18:17;2.45;;;1.30;;
25279;SDS011;13225;47.804;12.116;2023-08-08T07:20:42;1.38;;;1.27;;
25279;SDS011;13225;47.804;12.116;2023-08-08T07:23:08;2.67;;;1.38;;
25279;SDS011;13225;47.804;12.116;2023-08-08T07:25:34;1.33;;;1.23;;
25279;SDS011;13225;47.804;12.116;2023-08-08T07:28:00;2.03;;;1.35;;
25279;SDS011;13225;47.804;12.116;2023-08-08T07:30:25;2.58;;;1.30;;
25279;SDS011;13225;47.804;12.116;2023-08-08T07:32:51;1.45;;;1.33;;
25279;SDS011;13225;47.804;12.116;2023-08-08T07:35:17;2.05;;;1.17;;
25279;SDS011;13225;47.804;12.116;2023-08-08T07:37:43;1.73;;;1.20;;
25279;SDS011;13225;47.804;12.116;2023-08-08T07:40:15;1.40;;;1.17;;
25279;SDS011;13225;47.804;12.116;2023-08-08T07:42:45;2.90;;;1.27;;
25279;SDS011;13225;47.804;12.116;2023-08-08T07:45:11;1.17;;;1.08;;
25279;SDS011;13225;47.804;12.116;2023-08-08T07:47:37;2.15;;;1.08;;
25279;SDS011;13225;47.804;12.116;2023-08-08T07:50:03;1.92;;;1.10;;
25279;SDS011;13225;47.804;12.116;2023-08-08T07:52:29;1.48;;;1.13;;
25279;SDS011;13225;47.804;12.116;2023-08-08T07:54:55;2.22;;;1.30;;
25279;SDS011;13225;47.804;12.116;2023-08-08T07:57:20;2.10;;;1.90;;
25279;SDS011;13225;47.804;12.116;2023-08-08T07:59:46;3.70;;;1.98;;
25279;SDS011;13225;47.804;12.116;2023-08-08T08:02:11;2.15;;;1.70;;
25279;SDS011;13225;47.804;12.116;2023-08-08T08:04:37;2.28;;;2.00;;
25279;SDS011;13225;47.804;12.116;2023-08-08T08:07:02;1.95;;;1.60;;
25279;SDS011;13225;47.804;12.116;2023-08-08T08:09:28;1.90;;;1.70;;
25279;SDS011;13225;47.804;12.116;2023-08-08T08:11:54;3.22;;;2.47;;
25279;SDS011;13225;47.804;12.116;2023-08-08T08:14:20;2.70;;;1.98;;
25279;SDS011;13225;47.804;12.116;2023-08-08T08:16:46;3.90;;;2.20;;
25279;SDS011;13225;47.804;12.116;2023-08-08T08:19:13;2.63;;;1.70;;
25279;SDS011;13225;47.804;12.116;2023-08-08T08:21:38;3.40;;;2.20;;
25279;SDS011;13225;47.804;12.116;2023-08-08T08:24:04;3.35;;;2.13;;
25279;SDS011;13225;47.804;12.116;2023-08-08T08:26:30;2.33;;;1.70;;
25279;SDS011;13225;47.804;12.116;2023-08-08T08:28:57;5.63;;;2.40;;
25279;SDS011;13225;47.804;12.116;2023-08-08T08:31:22;2.40;;;2.20;;
25279;SDS011;13225;47.804;12.116;2023-08-08T08:33:48;2.03;;;1.77;;
25279;SDS011;13225;47.804;12.116;2023-08-08T08:36:14;2.63;;;1.77;;
25279;SDS011;13225;47.804;12.116;2023-08-08T08:38:39;3.85;;;1.88;;
25279;SDS011;13225;47.804;12.116;2023-08-08T08:41:05;1.33;;;1.20;;
25279;SDS011;13225;47.804;12.116;2023-08-08T08:43:31;2.15;;;1.20;;
25279;SDS011;13225;47.804;12.116;2023-08-08T08:45:57;3.80;;;1.90;;
25279;SDS011;13225;47.804;12.116;2023-08-08T08:48:26;2.40;;;1.40;;
25279;SDS011;13225;47.804;12.116;2023-08-08T08:50:52;3.00;;;2.10;;
25279;SDS011;13225;47.804;12.116;2023-08-08T08:53:18;1.60;;;1.50;;
25279;SDS011;13225;47.804;12.116;2023-08-08T08:55:43;2.97;;;1.70;;
25279;SDS011;13225;47.804;12.116;2023-08-08T08:58:11;2.85;;;1.20;;
25279;SDS011;13225;47.804;12.116;2023-08-08T09:00:39;1.77;;;1.67;;
25279;SDS011;13225;47.804;12.116;2023-08-08T09:03:06;4.43;;;1.77;;
25279;SDS011;13225;47.804;12.116;2023-08-08T09:05:31;1.60;;;1.30;;
25279;SDS011;13225;47.804;12.116;2023-08-08T09:07:58;3.88;;;1.70;;
25279;SDS011;13225;47.804;12.116;2023-08-08T09:10:25;1.75;;;1.40;;
25279;SDS011;13225;47.804;12.116;2023-08-08T09:12:52;1.50;;;1.20;;
25279;SDS011;13225;47.804;12.116;2023-08-08T09:15:18;1.58;;;1.48;;
25279;SDS011;13225;47.804;12.116;2023-08-08T09:17:44;2.38;;;1.35;;
25279;SDS011;13225;47.804;12.116;2023-08-08T09:20:11;10.77;;;1.50;;
25279;SDS011;13225;47.804;12.116;2023-08-08T09:22:37;1.15;;;1.05;;
25279;SDS011;13225;47.804;12.116;2023-08-08T09:25:04;2.33;;;1.20;;
25279;SDS011;13225;47.804;12.116;2023-08-08T09:27:31;3.22;;;1.40;;
25279;SDS011;13225;47.804;12.116;2023-08-08T09:29:56;1.20;;;1.10;;
25279;SDS011;13225;47.804;12.116;2023-08-08T09:32:22;3.45;;;1.00;;
25279;SDS011;13225;47.804;12.116;2023-08-08T09:34:48;1.05;;;0.98;;
25279;SDS011;13225;47.804;12.116;2023-08-08T09:37:13;2.15;;;0.90;;
25279;SDS011;13225;47.804;12.116;2023-08-08T09:39:39;4.22;;;1.63;;
25279;SDS011;13225;47.804;12.116;2023-08-08T09:42:05;1.27;;;1.10;;
25279;SDS011;13225;47.804;12.116;2023-08-08T09:44:33;2.00;;;1.30;;
25279;SDS011;13225;47.804;12.116;2023-08-08T09:47:00;1.08;;;0.90;;
25279;SDS011;13225;47.804;12.116;2023-08-08T09:49:25;1.27;;;1.13;;
25279;SDS011;13225;47.804;12.116;2023-08-08T09:51:52;2.95;;;1.20;;
25279;SDS011;13225;47.804;12.116;2023-08-08T09:54:19;2.72;;;1.65;;
25279;SDS011;13225;47.804;12.116;2023-08-08T09:56:45;1.20;;;1.10;;
25279;SDS011;13225;47.804;12.116;2023-08-08T09:59:12;1.80;;;1.23;;
25279;SDS011;13225;47.804;12.116;2023-08-08T10:01:39;3.38;;;1.00;;
25279;SDS011;13225;47.804;12.116;2023-08-08T10:04:06;1.55;;;1.20;;
25279;SDS011;13225;47.804;12.116;2023-08-08T10:06:33;1.27;;;1.02;;
25279;SDS011;13225;47.804;12.116;2023-08-08T10:08:59;2.17;;;1.17;;
25279;SDS011;13225;47.804;12.116;2023-08-08T10:11:26;3.28;;;0.98;;
25279;SDS011;13225;47.804;12.116;2023-08-08T10:13:53;1.67;;;1.30;;
25279;SDS011;13225;47.804;12.116;2023-08-08T10:16:19;1.38;;;0.90;;
25279;SDS011;13225;47.804;12.116;2023-08-08T10:18:54;1.42;;;1.20;;
25279;SDS011;13225;47.804;12.116;2023-08-08T10:21:24;1.75;;;0.93;;
25279;SDS011;13225;47.804;12.116;2023-08-08T10:24:00;1.08;;;0.90;;
25279;SDS011;13225;47.804;12.116;2023-08-08T10:26:30;1.08;;;0.95;;
25279;SDS011;13225;47.804;12.116;2023-08-08T10:28:57;2.35;;;1.13;;
25279;SDS011;13225;47.804;12.116;2023-08-08T10:31:24;2.20;;;1.20;;
25279;SDS011;13225;47.804;12.116;2023-08-08T10:33:49;1.05;;;0.90;;
25279;SDS011;13225;47.804;12.116;2023-08-08T10:36:25;2.15;;;0.95;;
25279;SDS011;13225;47.804;12.116;2023-08-08T10:38:51;1.05;;;0.98;;
25279;SDS011;13225;47.804;12.116;2023-08-08T10:41:19;0.90;;;0.90;;
25279;SDS011;13225;47.804;12.116;2023-08-08T10:43:56;0.95;;;0.80;;
25279;SDS011;13225;47.804;12.116;2023-08-08T10:46:26;1.00;;;0.70;;
25279;SDS011;13225;47.804;12.116;2023-08-08T10:48:57;1.42;;;1.00;;
25279;SDS011;13225;47.804;12.116;2023-08-08T10:51:37;1.42;;;1.05;;
25279;SDS011;13225;47.804;12.116;2023-08-08T10:54:09;0.95;;;0.82;;
25279;SDS011;13225;47.804;12.116;2023-08-08T10:56:58;1.52;;;0.90;;
25279;SDS011;13225;47.804;12.116;2023-08-08T10:59:25;0.77;;;0.77;;
25279;SDS011;13225;47.804;12.116;2023-08-08T11:01:51;1.52;;;1.00;;
25279;SDS011;13225;47.804;12.116;2023-08-08T11:04:18;1.90;;;0.88;;
25279;SDS011;13225;47.804;12.116;2023-08-08T11:06:46;1.92;;;0.80;;
25279;SDS011;13225;47.804;12.116;2023-08-08T11:09:13;1.83;;;0.85;;
25279;SDS011;13225;47.804;12.116;2023-08-08T11:11:40;1.90;;;1.08;;
25279;SDS011;13225;47.804;12.116;2023-08-08T11:14:17;1.27;;;1.00;;
25279;SDS011;13225;47.804;12.116;2023-08-08T11:16:45;2.03;;;1.13;;
25279;SDS011;13225;47.804;12.116;2023-08-08T11:19:12;2.90;;;1.15;;
25279;SDS011;13225;47.804;12.116;2023-08-08T11:21:39;1.13;;;0.90;;
25279;SDS011;13225;47.804;12.116;2023-08-08T11:24:06;2.05;;;1.08;;
25279;SDS011;13225;47.804;12.116;2023-08-08T11:26:33;1.48;;;1.02;;
25279;SDS011;13225;47.804;12.116;2023-08-08T11:29:00;1.20;;;1.10;;
25279;SDS011;13225;47.804;12.116;2023-08-08T11:31:26;1.15;;;0.95;;
25279;SDS011;13225;47.804;12.116;2023-08-08T11:33:55;1.30;;;1.15;;
25279;SDS011;13225;47.804;12.116;2023-08-08T11:36:21;2.42;;;1.05;;
25279;SDS011;13225;47.804;12.116;2023-08-08T11:38:48;1.77;;;1.15;;
25279;SDS011;13225;47.804;12.116;2023-08-08T11:41:15;1.15;;;0.80;;
25279;SDS011;13225;47.804;12.116;2023-08-08T11:43:43;2.33;;;1.00;;
25279;SDS011;13225;47.804;12.116;2023-08-08T11:46:09;1.77;;;1.05;;
25279;SDS011;13225;47.804;12.116;2023-08-08T11:48:39;1.15;;;0.80;;
25279;SDS011;13225;47.804;12.116;2023-08-08T11:51:05;1.05;;;0.90;;
25279;SDS011;13225;47.804;12.116;2023-08-08T11:53:32;2.03;;;1.15;;
25279;SDS011;13225;47.804;12.116;2023-08-08T11:55:59;1.80;;;0.90;;
25279;SDS011;13225;47.804;12.116;2023-08-08T11:58:25;1.70;;;0.85;;
25279;SDS011;13225;47.804;12.116;2023-08-08T12:00:51;3.05;;;1.20;;
25279;SDS011;13225;47.804;12.116;2023-08-08T12:03:17;1.20;;;1.10;;
25279;SDS011;13225;47.804;12.116;2023-08-08T12:05:47;1.20;;;1.10;;
25279;SDS011;13225;47.804;12.116;2023-08-08T12:08:16;1.30;;;1.00;;
25279;SDS011;13225;47.804;12.116;2023-08-08T12:10:47;1.83;;;1.10;;
25279;SDS011;13225;47.804;12.116;2023-08-08T12:13:19;1.08;;;0.88;;
25279;SDS011;13225;47.804;12.116;2023-08-08T12:15:45;1.65;;;1.17;;
25279;SDS011;13225;47.804;12.116;2023-08-08T12:18:11;1.13;;;1.00;;
25279;SDS011;13225;47.804;12.116;2023-08-08T12:20:36;1.27;;;1.10;;
25279;SDS011;13225;47.804;12.116;2023-08-08T12:23:02;1.90;;;1.10;;
25279;SDS011;13225;47.804;12.116;2023-08-08T12:25:28;1.20;;;0.90;;
25279;SDS011;13225;47.804;12.116;2023-08-08T12:27:53;2.30;;;0.93;;
25279;SDS011;13225;47.804;12.116;2023-08-08T12:30:19;3.05;;;0.88;;
25279;SDS011;13225;47.804;12.116;2023-08-08T12:32:45;0.90;;;0.90;;
25279;SDS011;13225;47.804;12.116;2023-08-08T12:35:10;1.40;;;0.98;;
25279;SDS011;13225;47.804;12.116;2023-08-08T12:37:36;2.20;;;0.90;;
25279;SDS011;13225;47.804;12.116;2023-08-08T12:40:02;1.65;;;0.90;;
25279;SDS011;13225;47.804;12.116;2023-08-08T12:42:28;1.60;;;1.13;;
25279;SDS011;13225;47.804;12.116;2023-08-08T12:44:53;1.83;;;1.10;;
25279;SDS011;13225;47.804;12.116;2023-08-08T12:47:19;1.67;;;1.58;;
25279;SDS011;13225;47.804;12.116;2023-08-08T12:49:46;0.85;;;0.85;;
25279;SDS011;13225;47.804;12.116;2023-08-08T12:52:12;1.52;;;1.00;;
25279;SDS011;13225;47.804;12.116;2023-08-08T12:54:38;1.17;;;1.08;;
25279;SDS011;13225;47.804;12.116;2023-08-08T12:57:04;1.27;;;1.00;;
25279;SDS011;13225;47.804;12.116;2023-08-08T12:59:29;1.10;;;1.00;;
25279;SDS011;13225;47.804;12.116;2023-08-08T13:01:55;0.95;;;0.85;;
25279;SDS011;13225;47.804;12.116;2023-08-08T13:04:20;0.85;;;0.80;;
25279;SDS011;13225;47.804;12.116;2023-08-08T13:06:47;1.30;;;0.98;;
25279;SDS011;13225;47.804;12.116;2023-08-08T13:09:13;1.98;;;0.82;;
25279;SDS011;13225;47.804;12.116;2023-08-08T13:11:40;1.30;;;0.90;;
25279;SDS011;13225;47.804;12.116;2023-08-08T13:14:06;1.65;;;0.80;;
25279;SDS011;13225;47.804;12.116;2023-08-08T13:16:32;0.90;;;0.70;;
25279;SDS011;13225;47.804;12.116;2023-08-08T13:18:58;1.05;;;0.98;;
25279;SDS011;13225;47.804;12.116;2023-08-08T13:21:24;1.17;;;1.08;;
25279;SDS011;13225;47.804;12.116;2023-08-08T13:23:49;1.77;;;0.80;;
25279;SDS011;13225;47.804;12.116;2023-08-08T13:26:15;0.80;;;0.80;;
25279;SDS011;13225;47.804;12.116;2023-08-08T13:28:41;0.75;;;0.75;;
25279;SDS011;13225;47.804;12.116;2023-08-08T13:31:07;1.25;;;0.90;;
25279;SDS011;13225;47.804;12.116;2023-08-08T13:33:33;1.25;;;0.73;;
25279;SDS011;13225;47.804;12.116;2023-08-08T13:35:59;0.88;;;0.85;;
25279;SDS011;13225;47.804;12.116;2023-08-08T13:38:26;1.52;;;1.00;;
25279;SDS011;13225;47.804;12.116;2023-08-08T13:40:51;1.52;;;1.10;;
25279;SDS011;13225;47.804;12.116;2023-08-08T13:43:17;1.00;;;0.90;;
25279;SDS011;13225;47.804;12.116;2023-08-08T13:45:43;2.35;;;0.80;;
25279;SDS011;13225;47.804;12.116;2023-08-08T13:48:09;2.50;;;0.90;;
25279;SDS011;13225;47.804;12.116;2023-08-08T13:50:35;1.90;;;0.98;;
25279;SDS011;13225;47.804;12.116;2023-08-08T13:53:00;0.90;;;0.90;;
25279;SDS011;13225;47.804;12.116;2023-08-08T13:55:26;1.23;;;0.90;;
25279;SDS011;13225;47.804;12.116;2023-08-08T13:57:52;0.88;;;0.80;;
25279;SDS011;13225;47.804;12.116;2023-08-08T14:00:20;1.70;;;1.20;;
25279;SDS011;13225;47.804;12.116;2023-08-08T14:02:45;1.05;;;0.90;;
25279;SDS011;13225;47.804;12.116;2023-08-08T14:05:11;1.08;;;0.90;;
25279;SDS011;13225;47.804;12.116;2023-08-08T14:07:36;1.02;;;0.98;;
25279;SDS011;13225;47.804;12.116;2023-08-08T14:10:02;1.33;;;1.00;;
25279;SDS011;13225;47.804;12.116;2023-08-08T15:39:51;0.93;;;0.85;;
25279;SDS011;13225;47.804;12.116;2023-08-08T15:42:16;1.98;;;0.75;;
25279;SDS011;13225;47.804;12.116;2023-08-08T15:44:42;1.25;;;0.93;;
25279;SDS011;13225;47.804;12.116;2023-08-08T15:47:08;1.00;;;0.88;;
25279;SDS011;13225;47.804;12.116;2023-08-08T15:49:34;0.75;;;0.70;;
25279;SDS011;13225;47.804;12.116;2023-08-08T15:51:59;1.05;;;0.90;;
25279;SDS011;13225;47.804;12.116;2023-08-08T15:54:26;1.33;;;0.90;;
25279;SDS011;13225;47.804;12.116;2023-08-08T15:56:51;1.20;;;1.10;;
25279;SDS011;13225;47.804;12.116;2023-08-08T15:59:17;1.27;;;0.95;;
25279;SDS011;13225;47.804;12.116;2023-08-08T16:01:43;0.80;;;0.80;;